createdAt,value
2017-05-30T00:00:35.062Z,73
2017-05-30T00:01:35.791Z,73
2017-05-30T00:02:36.518Z,73
2017-05-30T00:03:37.495Z,74
2017-05-30T00:04:38.228Z,73
2017-05-30T00:05:38.963Z,74
2017-05-30T00:06:39.689Z,74
2017-05-30T00:07:40.420Z,74
2017-05-30T00:08:41.419Z,74
2017-05-30T00:09:42.145Z,75
2017-05-30T00:10:42.875Z,75
2017-05-30T00:11:43.604Z,75
2017-05-30T00:12:44.333Z,75
2017-05-30T00:13:45.313Z,75
2017-05-30T00:14:46.040Z,75
2017-05-30T00:15:46.769Z,75
2017-05-30T00:16:47.500Z,75
2017-05-30T00:17:48.228Z,74
2017-05-30T00:18:49.204Z,75
2017-05-30T00:19:49.935Z,74
2017-05-30T00:20:50.663Z,74
2017-05-30T00:21:51.392Z,73
2017-05-30T00:22:52.118Z,74
2017-05-30T00:23:53.098Z,73
2017-05-30T00:24:53.849Z,74
2017-05-30T00:25:54.605Z,73
2017-05-30T00:26:55.333Z,73
2017-05-30T00:27:56.061Z,73
2017-05-30T00:28:57.040Z,73
2017-05-30T00:29:57.794Z,73
2017-05-30T00:30:58.521Z,72
2017-05-30T00:31:59.249Z,72
2017-05-30T00:32:59.977Z,72
2017-05-30T00:34:00.955Z,72
2017-05-30T00:35:01.686Z,71
2017-05-30T00:36:02.412Z,72
2017-05-30T00:37:03.140Z,71
2017-05-30T00:38:03.870Z,71
2017-05-30T00:39:04.875Z,71
2017-05-30T00:40:05.599Z,71
2017-05-30T00:41:06.327Z,71
2017-05-30T00:42:07.108Z,71
2017-05-30T00:43:07.783Z,72
2017-05-30T00:44:08.762Z,71
2017-05-30T00:45:09.494Z,72
2017-05-30T00:46:10.221Z,71
2017-05-30T00:47:10.971Z,72
2017-05-30T00:48:11.700Z,72
2017-05-30T00:49:12.680Z,71
2017-05-30T00:50:13.436Z,71
2017-05-30T00:51:14.162Z,71
2017-05-30T00:52:14.893Z,71
2017-05-30T00:53:15.621Z,71
2017-05-30T00:54:16.622Z,70
2017-05-30T00:55:17.353Z,70
2017-05-30T00:56:18.080Z,70
2017-05-30T00:57:18.808Z,70
2017-05-30T00:58:19.787Z,70
2017-05-30T00:59:20.519Z,70
2017-05-30T01:00:21.248Z,70
2017-05-30T01:01:22.004Z,69
2017-05-30T01:02:22.729Z,70
2017-05-30T01:03:23.711Z,70
2017-05-30T01:04:24.441Z,70
2017-05-30T01:05:25.173Z,70
2017-05-30T01:06:25.923Z,70
2017-05-30T01:07:26.676Z,71
2017-05-30T01:08:27.658Z,71
2017-05-30T01:09:28.385Z,71
2017-05-30T01:10:29.113Z,71
2017-05-30T01:11:29.840Z,72
2017-05-30T01:12:30.571Z,72
2017-05-30T01:13:31.553Z,72
2017-05-30T01:14:32.279Z,72
2017-05-30T01:15:33.010Z,72
2017-05-30T01:16:33.741Z,73
2017-05-30T01:17:34.473Z,72
2017-05-30T01:18:35.449Z,72
2017-05-30T01:19:36.178Z,73
2017-05-30T01:20:36.907Z,74
2017-05-30T01:21:37.639Z,73
2017-05-30T01:22:38.367Z,74
2017-05-30T01:23:39.345Z,74
2017-05-30T01:24:40.077Z,74
2017-05-30T01:25:40.807Z,74
2017-05-30T01:26:41.534Z,75
2017-05-30T01:27:42.265Z,75
2017-05-30T01:28:43.243Z,75
2017-05-30T01:29:43.970Z,75
2017-05-30T01:30:44.706Z,75
2017-05-30T01:31:45.429Z,75
2017-05-30T01:32:46.160Z,76
2017-05-30T01:33:47.140Z,76
2017-05-30T01:34:47.870Z,76
2017-05-30T01:35:48.596Z,76
2017-05-30T01:36:49.324Z,75
2017-05-30T01:37:50.052Z,76
2017-05-30T01:38:51.032Z,76
2017-05-30T01:39:51.761Z,76
2017-05-30T01:40:52.490Z,76
2017-05-30T01:41:53.220Z,76
2017-05-30T01:42:53.957Z,76
2017-05-30T01:43:54.929Z,76
2017-05-30T01:44:55.680Z,76
2017-05-30T01:45:56.413Z,76
2017-05-30T01:46:57.143Z,76
2017-05-30T01:47:57.871Z,77
2017-05-30T01:48:58.909Z,77
2017-05-30T01:49:59.579Z,77
2017-05-30T01:51:00.309Z,77
2017-05-30T01:52:01.036Z,77
2017-05-30T01:53:01.769Z,77
2017-05-30T01:54:02.749Z,78
2017-05-30T01:55:03.476Z,78
2017-05-30T01:56:04.210Z,78
2017-05-30T01:57:04.938Z,78
2017-05-30T01:58:05.668Z,78
2017-05-30T01:59:06.645Z,78
2017-05-30T02:00:07.379Z,78
2017-05-30T02:01:08.113Z,79
2017-05-30T02:02:08.844Z,79
2017-05-30T02:03:09.572Z,78
2017-05-30T02:04:10.572Z,78
2017-05-30T02:05:11.301Z,78
2017-05-30T02:06:12.034Z,78
2017-05-30T02:07:12.763Z,78
2017-05-30T02:08:13.494Z,78
2017-05-30T02:09:14.477Z,78
2017-05-30T02:10:15.206Z,79
2017-05-30T02:11:15.937Z,78
2017-05-30T02:12:16.669Z,79
2017-05-30T02:13:17.399Z,79
2017-05-30T02:14:18.375Z,79
2017-05-30T02:15:19.105Z,79
2017-05-30T02:16:19.834Z,79
2017-05-30T02:17:20.565Z,79
2017-05-30T02:18:21.323Z,79
2017-05-30T02:19:22.328Z,79
2017-05-30T02:20:23.057Z,80
2017-05-30T02:21:23.786Z,80
2017-05-30T02:22:24.543Z,82
2017-05-30T02:23:25.299Z,82
2017-05-30T02:24:26.276Z,83
2017-05-30T02:25:27.004Z,83
2017-05-30T02:26:27.738Z,83
2017-05-30T02:27:28.470Z,84
2017-05-30T02:28:29.196Z,83
2017-05-30T02:29:30.178Z,84
2017-05-30T02:30:30.909Z,84
2017-05-30T02:31:31.635Z,84
2017-05-30T02:32:32.366Z,85
2017-05-30T02:33:33.096Z,84
2017-05-30T02:34:34.078Z,85
2017-05-30T02:35:34.804Z,85
2017-05-30T02:36:35.536Z,85
2017-05-30T02:37:36.265Z,85
2017-05-30T02:38:36.997Z,85
2017-05-30T02:39:37.976Z,85
2017-05-30T02:40:38.708Z,85
2017-05-30T02:41:39.440Z,85
2017-05-30T02:42:40.169Z,85
2017-05-30T02:43:40.898Z,85
2017-05-30T02:44:41.878Z,85
2017-05-30T02:45:42.610Z,86
2017-05-30T02:46:43.337Z,86
2017-05-30T02:47:44.069Z,86
2017-05-30T02:48:44.802Z,85
2017-05-30T02:49:45.779Z,86
2017-05-30T02:50:46.507Z,86
2017-05-30T02:51:47.236Z,85
2017-05-30T02:52:47.967Z,85
2017-05-30T02:53:48.696Z,85
2017-05-30T02:54:49.675Z,85
2017-05-30T02:55:50.406Z,85
2017-05-30T02:56:51.136Z,85
2017-05-30T02:57:51.867Z,85
2017-05-30T02:58:52.596Z,85
2017-05-30T02:59:53.580Z,85
2017-05-30T03:00:54.310Z,85
2017-05-30T03:01:55.040Z,85
2017-05-30T03:02:55.770Z,85
2017-05-30T03:03:56.500Z,85
2017-05-30T03:04:57.497Z,84
2017-05-30T03:05:58.213Z,85
2017-05-30T03:06:58.944Z,84
2017-05-30T03:07:59.672Z,84
2017-05-30T03:09:00.425Z,84
2017-05-30T03:10:01.409Z,84
2017-05-30T03:11:02.139Z,84
2017-05-30T03:12:02.895Z,83
2017-05-30T03:13:03.621Z,84
2017-05-30T03:14:04.353Z,85
2017-05-30T03:15:05.330Z,84
2017-05-30T03:16:06.062Z,83
2017-05-30T03:17:06.792Z,84
2017-05-30T03:18:07.524Z,83
2017-05-30T03:19:08.252Z,83
2017-05-30T03:20:09.234Z,83
2017-05-30T03:21:09.961Z,83
2017-05-30T03:22:10.693Z,82
2017-05-30T03:23:11.419Z,83
2017-05-30T03:24:12.151Z,83
2017-05-30T03:25:13.157Z,83
2017-05-30T03:26:13.890Z,82
2017-05-30T03:27:14.622Z,83
2017-05-30T03:28:15.352Z,83
2017-05-30T03:29:16.081Z,83
2017-05-30T03:30:17.062Z,83
2017-05-30T03:31:17.792Z,84
2017-05-30T03:32:18.523Z,83
2017-05-30T03:33:19.252Z,84
2017-05-30T03:34:19.986Z,83
2017-05-30T03:35:20.967Z,83
2017-05-30T03:36:21.701Z,83
2017-05-30T03:37:22.433Z,83
2017-05-30T03:38:23.164Z,83
2017-05-30T03:39:23.897Z,83
2017-05-30T03:40:24.881Z,83
2017-05-30T03:41:25.613Z,84
2017-05-30T03:42:26.344Z,84
2017-05-30T03:43:27.077Z,83
2017-05-30T03:44:27.809Z,84
2017-05-30T03:45:28.790Z,83
2017-05-30T03:46:29.522Z,84
2017-05-30T03:47:30.253Z,84
2017-05-30T03:48:30.987Z,84
2017-05-30T03:49:31.718Z,84
2017-05-30T03:50:32.702Z,84
2017-05-30T03:51:33.430Z,84
2017-05-30T03:52:34.165Z,84
2017-05-30T03:53:34.897Z,84
2017-05-30T03:54:35.630Z,84
2017-05-30T03:55:36.612Z,84
2017-05-30T03:56:37.345Z,84
2017-05-30T03:57:38.077Z,84
2017-05-30T03:58:38.811Z,84
2017-05-30T03:59:39.539Z,84
2017-05-30T04:00:40.521Z,84
2017-05-30T04:01:41.252Z,84
2017-05-30T04:02:41.985Z,84
2017-05-30T04:03:42.718Z,83
2017-05-30T04:04:43.452Z,84
2017-05-30T04:05:44.431Z,84
2017-05-30T04:06:45.164Z,84
2017-05-30T04:07:45.918Z,84
2017-05-30T04:08:46.650Z,84
2017-05-30T04:09:47.406Z,84
2017-05-30T04:10:48.388Z,84
2017-05-30T04:11:49.118Z,85
2017-05-30T04:12:49.850Z,84
2017-05-30T04:13:50.584Z,84
2017-05-30T04:14:51.316Z,84
2017-05-30T04:15:52.296Z,84
2017-05-30T04:16:53.028Z,84
2017-05-30T04:17:53.763Z,84
2017-05-30T04:18:54.495Z,84
2017-05-30T04:19:55.226Z,85
2017-05-30T04:20:56.212Z,84
2017-05-30T04:21:56.942Z,84
2017-05-30T04:22:57.674Z,84
2017-05-30T04:23:58.405Z,84
2017-05-30T04:24:59.143Z,84
2017-05-30T04:26:00.118Z,84
2017-05-30T04:27:00.851Z,84
2017-05-30T04:28:01.584Z,84
2017-05-30T04:29:02.317Z,84
2017-05-30T04:30:03.048Z,84
2017-05-30T04:31:04.032Z,84
2017-05-30T04:32:04.768Z,84
2017-05-30T04:33:05.501Z,84
2017-05-30T04:34:06.256Z,84
2017-05-30T04:35:06.991Z,84
2017-05-30T04:36:07.976Z,83
2017-05-30T04:37:08.709Z,83
2017-05-30T04:38:09.440Z,84
2017-05-30T04:39:10.174Z,84
2017-05-30T04:40:10.905Z,84
2017-05-30T04:41:11.890Z,84
2017-05-30T04:42:12.621Z,84
2017-05-30T04:43:13.353Z,84
2017-05-30T04:44:14.088Z,84
2017-05-30T04:45:14.849Z,84
2017-05-30T04:46:15.859Z,84
2017-05-30T04:47:16.592Z,84
2017-05-30T04:48:17.323Z,84
2017-05-30T04:49:18.057Z,84
2017-05-30T04:50:18.793Z,84
2017-05-30T04:51:19.799Z,84
2017-05-30T04:52:20.532Z,84
2017-05-30T04:53:21.265Z,84
2017-05-30T04:54:22.000Z,84
2017-05-30T04:55:22.730Z,85
2017-05-30T04:56:23.717Z,85
2017-05-30T04:57:24.449Z,85
2017-05-30T04:58:25.181Z,85
2017-05-30T04:59:25.919Z,84
2017-05-30T05:00:26.652Z,84
2017-05-30T05:01:27.636Z,84
2017-05-30T05:02:28.373Z,84
2017-05-30T05:03:29.106Z,83
2017-05-30T05:04:29.843Z,83
2017-05-30T05:05:30.575Z,83
2017-05-30T05:06:31.561Z,83
2017-05-30T05:07:32.296Z,82
2017-05-30T05:08:33.031Z,82
2017-05-30T05:09:33.762Z,82
2017-05-30T05:10:34.499Z,82
2017-05-30T05:11:35.485Z,81
2017-05-30T05:12:36.217Z,81
2017-05-30T05:13:36.954Z,81
2017-05-30T05:14:37.689Z,81
2017-05-30T05:15:38.422Z,81
2017-05-30T05:16:39.408Z,81
2017-05-30T05:17:40.141Z,81
2017-05-30T05:18:40.877Z,81
2017-05-30T05:19:41.612Z,81
2017-05-30T05:20:42.349Z,80
2017-05-30T05:21:43.335Z,80
2017-05-30T05:22:44.068Z,80
2017-05-30T05:23:44.800Z,80
2017-05-30T05:24:45.535Z,80
2017-05-30T05:25:46.269Z,80
2017-05-30T05:26:47.256Z,80
2017-05-30T05:27:47.990Z,80
2017-05-30T05:28:48.723Z,80
2017-05-30T05:29:49.459Z,79
2017-05-30T05:30:50.278Z,80
2017-05-30T05:31:51.205Z,78
2017-05-30T05:32:51.938Z,77
2017-05-30T05:33:52.673Z,78
2017-05-30T05:34:53.408Z,78
2017-05-30T05:35:54.146Z,78
2017-05-30T05:36:55.128Z,77
2017-05-30T05:37:55.886Z,76
2017-05-30T05:38:56.620Z,76
2017-05-30T05:39:57.354Z,76
2017-05-30T05:40:58.114Z,76
2017-05-30T05:41:59.098Z,76
2017-05-30T05:42:59.831Z,76
2017-05-30T05:44:00.568Z,76
2017-05-30T05:45:01.312Z,76
2017-05-30T05:46:02.067Z,77
2017-05-30T05:47:03.055Z,77
2017-05-30T05:48:03.789Z,77
2017-05-30T05:49:04.532Z,77
2017-05-30T05:50:05.287Z,77
2017-05-30T05:51:06.023Z,77
2017-05-30T05:52:07.007Z,78
2017-05-30T05:53:07.742Z,77
2017-05-30T05:54:08.478Z,78
2017-05-30T05:55:09.213Z,77
2017-05-30T05:56:09.973Z,77
2017-05-30T05:57:10.957Z,77
2017-05-30T05:58:11.696Z,76
2017-05-30T05:59:12.457Z,76
2017-05-30T06:00:13.192Z,75
2017-05-30T06:01:13.930Z,75
2017-05-30T06:02:14.915Z,76
2017-05-30T06:03:15.653Z,75
2017-05-30T06:04:16.389Z,75
2017-05-30T06:05:17.122Z,75
2017-05-30T06:06:17.857Z,74
2017-05-30T06:07:18.841Z,74
2017-05-30T06:08:19.573Z,74
2017-05-30T06:09:20.310Z,74
2017-05-30T06:10:21.044Z,74
2017-05-30T06:11:21.781Z,74
2017-05-30T06:12:22.764Z,74
2017-05-30T06:13:23.501Z,74
2017-05-30T06:14:24.260Z,74
2017-05-30T06:15:25.022Z,74
2017-05-30T06:16:25.761Z,75
2017-05-30T06:17:26.743Z,75
2017-05-30T06:18:27.480Z,74
2017-05-30T06:19:28.215Z,73
2017-05-30T06:20:28.961Z,72
2017-05-30T06:21:29.698Z,72
2017-05-30T06:22:30.684Z,72
2017-05-30T06:23:31.418Z,72
2017-05-30T06:24:32.155Z,71
2017-05-30T06:25:32.915Z,72
2017-05-30T06:26:33.652Z,71
2017-05-30T06:27:34.662Z,71
2017-05-30T06:28:35.423Z,72
2017-05-30T06:29:36.159Z,72
2017-05-30T06:30:36.897Z,71
2017-05-30T06:31:37.631Z,71
2017-05-30T06:32:38.617Z,71
2017-05-30T06:33:39.350Z,71
2017-05-30T06:34:40.090Z,71
2017-05-30T06:35:40.823Z,71
2017-05-30T06:36:41.560Z,71
2017-05-30T06:37:42.546Z,71
2017-05-30T06:38:43.283Z,72
2017-05-30T06:39:44.043Z,71
2017-05-30T06:40:44.782Z,70
2017-05-30T06:41:45.517Z,70
2017-05-30T06:42:46.504Z,70
2017-05-30T06:43:47.242Z,69
2017-05-30T06:44:47.982Z,69
2017-05-30T06:45:48.745Z,69
2017-05-30T06:46:49.481Z,69
2017-05-30T06:47:50.468Z,68
2017-05-30T06:48:51.206Z,68
2017-05-30T06:49:51.945Z,68
2017-05-30T06:50:52.681Z,67
2017-05-30T06:51:53.417Z,67
2017-05-30T06:52:54.406Z,68
2017-05-30T06:53:55.143Z,69
2017-05-30T06:54:55.877Z,69
2017-05-30T06:55:56.641Z,69
2017-05-30T06:56:57.379Z,68
2017-05-30T06:57:58.365Z,68
2017-05-30T06:58:59.103Z,69
2017-05-30T06:59:59.838Z,69
2017-05-30T07:01:00.574Z,70
2017-05-30T07:02:01.312Z,70
2017-05-30T07:03:02.295Z,70
2017-05-30T07:04:03.034Z,70
2017-05-30T07:05:03.771Z,69
2017-05-30T07:06:04.507Z,69
2017-05-30T07:07:05.244Z,69
2017-05-30T07:08:06.231Z,68
2017-05-30T07:09:06.969Z,69
2017-05-30T07:10:07.707Z,69
2017-05-30T07:11:08.441Z,68
2017-05-30T07:12:09.178Z,70
2017-05-30T07:13:10.166Z,69
2017-05-30T07:14:10.900Z,69
2017-05-30T07:15:11.641Z,70
2017-05-30T07:16:12.374Z,69
2017-05-30T07:17:13.112Z,69
2017-05-30T07:18:14.096Z,69
2017-05-30T07:19:14.835Z,69
2017-05-30T07:20:15.596Z,68
2017-05-30T07:21:16.382Z,68
2017-05-30T07:22:17.068Z,69
2017-05-30T07:23:18.055Z,68
2017-05-30T07:24:18.791Z,69
2017-05-30T07:25:19.529Z,69
2017-05-30T07:26:20.268Z,69
2017-05-30T07:27:21.006Z,69
2017-05-30T07:28:22.002Z,69
2017-05-30T07:29:22.730Z,68
2017-05-30T07:30:23.467Z,67
2017-05-30T07:31:24.205Z,67
2017-05-30T07:32:24.946Z,66
2017-05-30T07:33:25.933Z,65
2017-05-30T07:34:26.672Z,66
2017-05-30T07:35:27.412Z,66
2017-05-30T07:36:28.153Z,65
2017-05-30T07:37:28.899Z,65
2017-05-30T07:38:29.892Z,65
2017-05-30T07:39:30.637Z,65
2017-05-30T07:40:31.381Z,64
2017-05-30T07:41:32.128Z,63
2017-05-30T07:42:32.874Z,63
2017-05-30T07:43:33.865Z,63
2017-05-30T07:44:34.611Z,61
2017-05-30T07:45:35.359Z,61
2017-05-30T07:46:36.100Z,61
2017-05-30T07:47:36.841Z,61
2017-05-30T07:48:37.837Z,60
2017-05-30T07:49:38.602Z,60
2017-05-30T07:50:39.343Z,60
2017-05-30T07:51:40.088Z,61
2017-05-30T07:52:40.834Z,61
2017-05-30T07:53:41.825Z,60
2017-05-30T07:54:42.567Z,60
2017-05-30T07:55:43.309Z,61
2017-05-30T07:56:44.053Z,61
2017-05-30T07:57:44.797Z,62
2017-05-30T07:58:45.794Z,62
2017-05-30T07:59:46.538Z,60
2017-05-30T08:00:47.278Z,60
2017-05-30T08:01:48.022Z,60
2017-05-30T08:02:48.765Z,59
2017-05-30T08:03:49.761Z,59
2017-05-30T08:04:50.504Z,60
2017-05-30T08:05:51.247Z,60
2017-05-30T08:06:51.989Z,60
2017-05-30T08:07:52.733Z,59
2017-05-30T08:08:53.732Z,58
2017-05-30T08:09:54.477Z,57
2017-05-30T08:10:55.222Z,56
2017-05-30T08:11:55.969Z,55
2017-05-30T08:12:56.715Z,53
2017-05-30T08:13:57.708Z,53
2017-05-30T08:14:58.453Z,53
2017-05-30T08:15:59.199Z,52
2017-05-30T08:16:59.942Z,54
2017-05-30T08:18:00.710Z,54
2017-05-30T08:19:01.706Z,52
2017-05-30T08:20:02.455Z,53
2017-05-30T08:21:03.199Z,52
2017-05-30T08:22:03.946Z,52
2017-05-30T08:23:04.688Z,53
2017-05-30T08:24:05.736Z,55
2017-05-30T08:25:06.479Z,55
2017-05-30T08:26:07.227Z,54
2017-05-30T08:27:07.972Z,55
2017-05-30T08:28:08.719Z,56
2017-05-30T08:29:09.713Z,57
2017-05-30T08:30:10.459Z,55
2017-05-30T08:31:11.206Z,55
2017-05-30T08:32:11.953Z,56
2017-05-30T08:33:12.696Z,57
2017-05-30T08:34:13.691Z,56
2017-05-30T08:35:14.436Z,56
2017-05-30T08:36:15.180Z,56
2017-05-30T08:37:15.924Z,55
2017-05-30T08:38:16.671Z,56
2017-05-30T08:39:17.662Z,55
2017-05-30T08:40:18.407Z,54
2017-05-30T08:41:19.152Z,54
2017-05-30T08:42:19.896Z,54
2017-05-30T08:43:20.640Z,54
2017-05-30T08:44:21.633Z,54
2017-05-30T08:45:22.377Z,55
2017-05-30T08:46:23.120Z,54
2017-05-30T08:47:23.887Z,54
2017-05-30T08:48:24.655Z,56
2017-05-30T08:49:25.647Z,56
2017-05-30T08:50:26.390Z,56
2017-05-30T08:51:27.134Z,56
2017-05-30T08:52:27.900Z,54
2017-05-30T08:53:28.646Z,54
2017-05-30T08:54:29.640Z,54
2017-05-30T08:55:30.386Z,54
2017-05-30T08:56:31.131Z,54
2017-05-30T08:57:31.878Z,54
2017-05-30T08:58:32.624Z,53
2017-05-30T08:59:33.620Z,53
2017-05-30T09:00:34.367Z,53
2017-05-30T09:01:35.111Z,53
2017-05-30T09:02:35.857Z,53
2017-05-30T09:03:36.606Z,52
2017-05-30T09:04:37.605Z,52
2017-05-30T09:05:38.350Z,51
2017-05-30T09:06:39.098Z,50
2017-05-30T09:07:39.853Z,50
2017-05-30T09:08:40.599Z,51
2017-05-30T09:09:41.594Z,51
2017-05-30T09:10:42.340Z,50
2017-05-30T09:11:43.086Z,50
2017-05-30T09:12:43.830Z,49
2017-05-30T09:13:44.581Z,47
2017-05-30T09:14:45.582Z,47
2017-05-30T09:15:46.333Z,47
2017-05-30T09:16:47.086Z,48
2017-05-30T09:17:47.834Z,48
2017-05-30T09:18:48.581Z,48
2017-05-30T09:19:49.581Z,49
2017-05-30T09:20:50.330Z,49
2017-05-30T09:21:51.082Z,48
2017-05-30T09:22:51.860Z,50
2017-05-30T09:23:52.606Z,50
2017-05-30T09:24:53.601Z,51
2017-05-30T09:25:54.348Z,52
2017-05-30T09:26:55.175Z,53
2017-05-30T09:27:55.857Z,55
2017-05-30T09:28:56.604Z,54
2017-05-30T09:29:57.602Z,53
2017-05-30T09:30:58.342Z,52
2017-05-30T09:31:59.085Z,54
2017-05-30T09:32:59.852Z,53
2017-05-30T09:34:00.593Z,53
2017-05-30T09:35:01.588Z,53
2017-05-30T09:36:02.329Z,53
2017-05-30T09:37:03.074Z,54
2017-05-30T09:38:03.819Z,54
2017-05-30T09:39:04.561Z,54
2017-05-30T09:40:05.551Z,53
2017-05-30T09:41:06.319Z,53
2017-05-30T09:42:07.086Z,55
2017-05-30T09:43:07.829Z,56
2017-05-30T09:44:08.598Z,56
2017-05-30T09:45:09.612Z,55
2017-05-30T09:46:10.352Z,55
2017-05-30T09:47:11.097Z,55
2017-05-30T09:48:11.869Z,55
2017-05-30T09:49:12.609Z,54
2017-05-30T09:50:13.607Z,55
2017-05-30T09:51:14.347Z,54
2017-05-30T09:52:15.091Z,53
2017-05-30T09:53:15.837Z,52
2017-05-30T09:54:16.581Z,53
2017-05-30T09:55:17.580Z,53
2017-05-30T09:56:18.327Z,53
2017-05-30T09:57:19.073Z,52
2017-05-30T09:58:19.814Z,51
2017-05-30T09:59:20.558Z,51
2017-05-30T10:00:21.558Z,52
2017-05-30T10:01:22.308Z,50
2017-05-30T10:02:23.050Z,49
2017-05-30T10:03:23.797Z,50
2017-05-30T10:04:24.541Z,49
2017-05-30T10:05:25.541Z,49
2017-05-30T10:06:26.294Z,49
2017-05-30T10:07:27.046Z,49
2017-05-30T10:08:27.822Z,48
2017-05-30T10:09:28.587Z,48
2017-05-30T10:10:29.586Z,48
2017-05-30T10:11:30.343Z,48
2017-05-30T10:12:31.101Z,48
2017-05-30T10:13:31.854Z,48
2017-05-30T10:14:32.613Z,47
2017-05-30T10:15:33.642Z,47
2017-05-30T10:16:34.396Z,47
2017-05-30T10:17:35.149Z,47
2017-05-30T10:18:35.899Z,46
2017-05-30T10:19:36.652Z,45
2017-05-30T10:20:37.652Z,45
2017-05-30T10:21:38.411Z,46
2017-05-30T10:22:39.158Z,46
2017-05-30T10:23:39.909Z,47
2017-05-30T10:24:40.660Z,48
2017-05-30T10:25:41.664Z,47
2017-05-30T10:26:42.420Z,46
2017-05-30T10:27:43.177Z,47
2017-05-30T10:28:43.932Z,47
2017-05-30T10:29:44.683Z,46
2017-05-30T10:30:45.687Z,47
2017-05-30T10:31:46.439Z,47
2017-05-30T10:32:47.194Z,48
2017-05-30T10:33:47.943Z,50
2017-05-30T10:34:48.722Z,50
2017-05-30T10:35:49.725Z,48
2017-05-30T10:36:50.472Z,48
2017-05-30T10:37:51.221Z,48
2017-05-30T10:38:51.981Z,48
2017-05-30T10:39:52.735Z,48
2017-05-30T10:40:53.744Z,49
2017-05-30T10:41:54.498Z,49
2017-05-30T10:42:55.257Z,48
2017-05-30T10:43:56.014Z,48
2017-05-30T10:44:56.773Z,48
2017-05-30T10:45:57.779Z,48
2017-05-30T10:46:58.537Z,47
2017-05-30T10:47:59.289Z,46
2017-05-30T10:49:00.043Z,47
2017-05-30T10:50:00.797Z,47
2017-05-30T10:51:01.802Z,48
2017-05-30T10:52:02.562Z,50
2017-05-30T10:53:03.323Z,48
2017-05-30T10:54:04.075Z,48
2017-05-30T10:55:04.826Z,47
2017-05-30T10:56:05.832Z,48
2017-05-30T10:57:06.612Z,48
2017-05-30T10:58:07.364Z,47
2017-05-30T10:59:08.142Z,47
2017-05-30T11:00:08.892Z,46
2017-05-30T11:01:09.897Z,47
2017-05-30T11:02:10.654Z,48
2017-05-30T11:03:11.402Z,49
2017-05-30T11:04:12.153Z,48
2017-05-30T11:05:12.907Z,48
2017-05-30T11:06:13.910Z,47
2017-05-30T11:07:14.661Z,45
2017-05-30T11:08:15.407Z,45
2017-05-30T11:09:16.157Z,46
2017-05-30T11:10:16.906Z,48
2017-05-30T11:11:17.902Z,48
2017-05-30T11:12:18.648Z,48
2017-05-30T11:13:19.397Z,47
2017-05-30T11:14:20.173Z,47
2017-05-30T11:15:20.924Z,47
2017-05-30T11:16:21.925Z,45
2017-05-30T11:17:22.701Z,45
2017-05-30T11:18:23.443Z,47
2017-05-30T11:19:24.186Z,47
2017-05-30T11:20:24.932Z,47
2017-05-30T11:21:25.929Z,47
2017-05-30T11:22:26.673Z,48
2017-05-30T11:23:27.412Z,49
2017-05-30T11:24:28.159Z,49
2017-05-30T11:25:28.901Z,50
2017-05-30T11:26:29.898Z,50
2017-05-30T11:27:30.637Z,50
2017-05-30T11:28:31.377Z,50
2017-05-30T11:29:32.118Z,51
2017-05-30T11:30:32.858Z,52
2017-05-30T11:31:33.848Z,52
2017-05-30T11:32:34.587Z,53
2017-05-30T11:33:35.328Z,53
2017-05-30T11:34:36.067Z,53
2017-05-30T11:35:36.807Z,53
2017-05-30T11:36:37.798Z,52
2017-05-30T11:37:38.540Z,53
2017-05-30T11:38:39.281Z,52
2017-05-30T11:39:40.023Z,52
2017-05-30T11:40:40.761Z,52
2017-05-30T11:41:41.749Z,52
2017-05-30T11:42:42.490Z,52
2017-05-30T11:43:43.230Z,52
2017-05-30T11:44:43.970Z,52
2017-05-30T11:45:44.710Z,53
2017-05-30T11:46:45.705Z,51
2017-05-30T11:47:46.443Z,50
2017-05-30T11:48:47.183Z,50
2017-05-30T11:49:47.923Z,49
2017-05-30T11:50:48.668Z,48
2017-05-30T11:51:49.661Z,47
2017-05-30T11:52:50.402Z,48
2017-05-30T11:53:51.141Z,50
2017-05-30T11:54:51.886Z,51
2017-05-30T11:55:52.624Z,52
2017-05-30T11:56:53.612Z,52
2017-05-30T11:57:54.350Z,53
2017-05-30T11:58:55.091Z,53
2017-05-30T11:59:55.830Z,57
2017-05-30T12:00:56.571Z,59
2017-05-30T12:01:57.562Z,60
2017-05-30T12:02:58.324Z,61
2017-05-30T12:03:59.064Z,63
2017-05-30T12:04:59.804Z,65
2017-05-30T12:06:00.546Z,67
2017-05-30T12:07:01.536Z,68
2017-05-30T12:08:02.297Z,68
2017-05-30T12:09:03.048Z,69
2017-05-30T12:10:03.785Z,71
2017-05-30T12:11:04.528Z,72
2017-05-30T12:12:05.522Z,72
2017-05-30T12:13:06.265Z,70
2017-05-30T12:14:07.006Z,71
2017-05-30T12:15:07.774Z,72
2017-05-30T12:16:08.513Z,71
2017-05-30T12:17:09.503Z,70
2017-05-30T12:18:10.244Z,71
2017-05-30T12:19:10.983Z,70
2017-05-30T12:20:11.725Z,71
2017-05-30T12:21:12.467Z,72
2017-05-30T12:22:13.462Z,70
2017-05-30T12:23:14.207Z,69
2017-05-30T12:24:14.951Z,70
2017-05-30T12:25:15.697Z,69
2017-05-30T12:26:16.434Z,69
2017-05-30T12:27:17.430Z,68
2017-05-30T12:28:18.170Z,68
2017-05-30T12:29:18.914Z,67
2017-05-30T12:30:19.654Z,69
2017-05-30T12:31:20.395Z,68
2017-05-30T12:32:21.411Z,66
2017-05-30T12:33:22.154Z,67
2017-05-30T12:34:22.896Z,65
2017-05-30T12:35:23.636Z,66
2017-05-30T12:36:24.401Z,66
2017-05-30T12:37:25.394Z,65
2017-05-30T12:38:26.137Z,65
2017-05-30T12:39:26.882Z,65
2017-05-30T12:40:27.623Z,65
2017-05-30T12:41:28.367Z,65
2017-05-30T12:42:29.361Z,63
2017-05-30T12:43:30.107Z,63
2017-05-30T12:44:30.852Z,62
2017-05-30T12:45:31.594Z,62
2017-05-30T12:46:32.337Z,61
2017-05-30T12:47:33.330Z,59
2017-05-30T12:48:34.073Z,59
2017-05-30T12:49:34.815Z,61
2017-05-30T12:50:35.558Z,61
2017-05-30T12:51:36.322Z,60
2017-05-30T12:52:37.316Z,59
2017-05-30T12:53:38.060Z,60
2017-05-30T12:54:38.802Z,61
2017-05-30T12:55:39.545Z,61
2017-05-30T12:56:40.290Z,61
2017-05-30T12:57:41.281Z,62
2017-05-30T12:58:42.023Z,63
2017-05-30T12:59:42.765Z,64
2017-05-30T13:00:43.505Z,63
2017-05-30T13:01:44.247Z,63
2017-05-30T13:02:45.238Z,64
2017-05-30T13:03:45.981Z,66
2017-05-30T13:04:46.721Z,66
2017-05-30T13:05:47.462Z,67
2017-05-30T13:06:48.207Z,68
2017-05-30T13:07:49.196Z,69
2017-05-30T13:08:49.937Z,69
2017-05-30T13:09:50.676Z,68
2017-05-30T13:10:51.415Z,68
2017-05-30T13:11:52.156Z,68
2017-05-30T13:12:53.150Z,70
2017-05-30T13:13:53.891Z,70
2017-05-30T13:14:54.634Z,71
2017-05-30T13:15:55.371Z,71
2017-05-30T13:16:56.113Z,72
2017-05-30T13:17:57.100Z,73
2017-05-30T13:18:57.838Z,70
2017-05-30T13:19:58.580Z,71
2017-05-30T13:20:59.322Z,70
2017-05-30T13:22:00.062Z,70
2017-05-30T13:23:01.050Z,71
2017-05-30T13:24:01.790Z,69
2017-05-30T13:25:02.531Z,70
2017-05-30T13:26:03.270Z,71
2017-05-30T13:27:04.008Z,69
2017-05-30T13:28:05.023Z,68
2017-05-30T13:29:05.761Z,70
2017-05-30T13:30:06.503Z,68
2017-05-30T13:31:07.239Z,69
2017-05-30T13:32:07.980Z,69
2017-05-30T13:33:08.967Z,69
2017-05-30T13:34:09.707Z,69
2017-05-30T13:35:10.450Z,69
2017-05-30T13:36:11.211Z,68
2017-05-30T13:37:11.949Z,69
2017-05-30T13:38:12.944Z,68
2017-05-30T13:39:13.686Z,68
2017-05-30T13:40:14.424Z,68
2017-05-30T13:41:15.164Z,67
2017-05-30T13:42:15.903Z,66
2017-05-30T13:43:16.895Z,63
2017-05-30T13:44:17.641Z,64
2017-05-30T13:45:18.385Z,63
2017-05-30T13:46:19.133Z,63
2017-05-30T13:47:19.879Z,59
2017-05-30T13:48:20.871Z,57
2017-05-30T13:49:21.620Z,58
2017-05-30T13:50:22.363Z,57
2017-05-30T13:51:23.134Z,57
2017-05-30T13:52:23.878Z,57
2017-05-30T13:53:24.870Z,53
2017-05-30T13:54:25.613Z,53
2017-05-30T13:55:26.355Z,52
2017-05-30T13:56:27.100Z,53
2017-05-30T13:57:27.846Z,53
2017-05-30T13:58:28.836Z,54
2017-05-30T13:59:29.576Z,52
2017-05-30T14:00:30.321Z,53
2017-05-30T14:01:31.064Z,54
2017-05-30T14:02:31.806Z,56
2017-05-30T14:03:32.796Z,57
2017-05-30T14:04:33.536Z,57
2017-05-30T14:05:34.287Z,57
2017-05-30T14:06:35.048Z,58
2017-05-30T14:07:35.787Z,58
2017-05-30T14:08:36.777Z,59
2017-05-30T14:09:37.522Z,57
2017-05-30T14:10:38.264Z,56
2017-05-30T14:11:39.005Z,56
2017-05-30T14:12:39.744Z,54
2017-05-30T14:13:40.736Z,55
2017-05-30T14:14:41.480Z,56
2017-05-30T14:15:42.222Z,54
2017-05-30T14:16:42.963Z,55
2017-05-30T14:17:43.701Z,56
2017-05-30T14:18:44.695Z,56
2017-05-30T14:19:45.434Z,56
2017-05-30T14:20:46.172Z,55
2017-05-30T14:21:46.911Z,56
2017-05-30T14:22:47.652Z,56
2017-05-30T14:23:48.643Z,57
2017-05-30T14:24:49.384Z,56
2017-05-30T14:25:50.121Z,57
2017-05-30T14:26:50.862Z,56